sensor_id;sensor_type;location;lat;lon;timestamp;temperature;humidity
16134;DHT22;8172;45.018;5.972;2022-12-29T00:01:37;4.50;59.60
16134;DHT22;8172;45.018;5.972;2022-12-29T00:06:45;4.40;59.90
16134;DHT22;8172;45.018;5.972;2022-12-29T00:11:52;4.40;60.20
16134;DHT22;8172;45.018;5.972;2022-12-29T00:16:59;4.40;60.50
16134;DHT22;8172;45.018;5.972;2022-12-29T00:22:08;4.40;60.80
16134;DHT22;8172;45.018;5.972;2022-12-29T00:27:16;4.40;60.90
16134;DHT22;8172;45.018;5.972;2022-12-29T00:32:25;4.30;61.00
16134;DHT22;8172;45.018;5.972;2022-12-29T00:37:35;4.30;61.10
16134;DHT22;8172;45.018;5.972;2022-12-29T00:42:43;4.30;61.20
16134;DHT22;8172;45.018;5.972;2022-12-29T00:47:52;4.30;61.20
16134;DHT22;8172;45.018;5.972;2022-12-29T00:52:59;4.30;61.20
16134;DHT22;8172;45.018;5.972;2022-12-29T00:58:06;4.30;61.20
16134;DHT22;8172;45.018;5.972;2022-12-29T01:03:13;4.30;61.20
16134;DHT22;8172;45.018;5.972;2022-12-29T01:08:20;4.30;61.10
16134;DHT22;8172;45.018;5.972;2022-12-29T01:13:28;4.30;61.20
16134;DHT22;8172;45.018;5.972;2022-12-29T01:18:36;4.30;61.30
16134;DHT22;8172;45.018;5.972;2022-12-29T01:23:43;4.30;61.30
16134;DHT22;8172;45.018;5.972;2022-12-29T01:28:50;4.30;61.20
16134;DHT22;8172;45.018;5.972;2022-12-29T01:33:57;4.30;61.10
16134;DHT22;8172;45.018;5.972;2022-12-29T01:39:04;4.30;61.10
16134;DHT22;8172;45.018;5.972;2022-12-29T01:49:24;4.20;60.80
16134;DHT22;8172;45.018;5.972;2022-12-29T01:54:36;4.20;60.90
16134;DHT22;8172;45.018;5.972;2022-12-29T01:59:43;4.10;60.90
16134;DHT22;8172;45.018;5.972;2022-12-29T02:04:52;4.00;61.00
16134;DHT22;8172;45.018;5.972;2022-12-29T02:10:02;4.00;61.20
16134;DHT22;8172;45.018;5.972;2022-12-29T02:15:09;3.90;61.50
16134;DHT22;8172;45.018;5.972;2022-12-29T02:30:38;4.00;61.70
16134;DHT22;8172;45.018;5.972;2022-12-29T02:35:52;4.00;61.70
16134;DHT22;8172;45.018;5.972;2022-12-29T02:56:25;4.20;61.80
16134;DHT22;8172;45.018;5.972;2022-12-29T03:12:03;4.40;61.50
16134;DHT22;8172;45.018;5.972;2022-12-29T03:17:08;4.30;61.30
16134;DHT22;8172;45.018;5.972;2022-12-29T03:22:20;4.30;61.30
16134;DHT22;8172;45.018;5.972;2022-12-29T03:27:34;4.20;61.40
16134;DHT22;8172;45.018;5.972;2022-12-29T03:32:46;4.10;61.60
16134;DHT22;8172;45.018;5.972;2022-12-29T03:37:55;4.10;61.70
16134;DHT22;8172;45.018;5.972;2022-12-29T03:43:02;4.00;62.00
16134;DHT22;8172;45.018;5.972;2022-12-29T03:48:12;3.90;62.10
16134;DHT22;8172;45.018;5.972;2022-12-29T03:53:21;3.90;62.30
16134;DHT22;8172;45.018;5.972;2022-12-29T03:58:28;3.90;62.40
16134;DHT22;8172;45.018;5.972;2022-12-29T04:03:38;3.90;62.50
16134;DHT22;8172;45.018;5.972;2022-12-29T04:08:45;3.90;62.60
16134;DHT22;8172;45.018;5.972;2022-12-29T04:13:52;3.90;62.60
16134;DHT22;8172;45.018;5.972;2022-12-29T04:19:02;4.00;62.60
16134;DHT22;8172;45.018;5.972;2022-12-29T04:24:10;4.00;62.70
16134;DHT22;8172;45.018;5.972;2022-12-29T04:29:20;4.00;62.70
16134;DHT22;8172;45.018;5.972;2022-12-29T04:34:28;4.00;62.80
16134;DHT22;8172;45.018;5.972;2022-12-29T04:39:36;4.00;62.90
16134;DHT22;8172;45.018;5.972;2022-12-29T04:44:44;4.00;63.00
16134;DHT22;8172;45.018;5.972;2022-12-29T04:49:53;4.00;63.00
16134;DHT22;8172;45.018;5.972;2022-12-29T04:55:02;3.90;63.10
16134;DHT22;8172;45.018;5.972;2022-12-29T05:00:10;3.90;63.20
16134;DHT22;8172;45.018;5.972;2022-12-29T05:05:18;4.00;63.40
16134;DHT22;8172;45.018;5.972;2022-12-29T05:10:27;4.00;63.40
16134;DHT22;8172;45.018;5.972;2022-12-29T05:15:38;4.00;63.40
16134;DHT22;8172;45.018;5.972;2022-12-29T05:20:47;4.10;63.50
16134;DHT22;8172;45.018;5.972;2022-12-29T05:25:56;4.20;63.40
16134;DHT22;8172;45.018;5.972;2022-12-29T05:31:05;4.30;63.40
16134;DHT22;8172;45.018;5.972;2022-12-29T05:36:13;4.40;63.50
16134;DHT22;8172;45.018;5.972;2022-12-29T05:41:21;4.40;63.20
16134;DHT22;8172;45.018;5.972;2022-12-29T05:46:31;4.50;63.20
16134;DHT22;8172;45.018;5.972;2022-12-29T05:51:40;4.60;63.20
16134;DHT22;8172;45.018;5.972;2022-12-29T05:56:48;4.60;63.30
16134;DHT22;8172;45.018;5.972;2022-12-29T06:01:55;4.70;63.30
16134;DHT22;8172;45.018;5.972;2022-12-29T06:07:03;4.70;63.40
16134;DHT22;8172;45.018;5.972;2022-12-29T06:12:11;4.70;63.40
16134;DHT22;8172;45.018;5.972;2022-12-29T06:17:20;4.70;63.30
16134;DHT22;8172;45.018;5.972;2022-12-29T06:22:28;4.80;63.40
16134;DHT22;8172;45.018;5.972;2022-12-29T06:27:35;4.80;63.60
16134;DHT22;8172;45.018;5.972;2022-12-29T06:32:43;4.90;63.70
16134;DHT22;8172;45.018;5.972;2022-12-29T06:37:50;4.90;63.60
16134;DHT22;8172;45.018;5.972;2022-12-29T06:42:57;4.90;63.60
16134;DHT22;8172;45.018;5.972;2022-12-29T06:48:07;4.90;63.70
16134;DHT22;8172;45.018;5.972;2022-12-29T06:53:14;4.90;63.70
16134;DHT22;8172;45.018;5.972;2022-12-29T06:58:21;5.00;63.90
16134;DHT22;8172;45.018;5.972;2022-12-29T07:03:28;5.00;64.00
16134;DHT22;8172;45.018;5.972;2022-12-29T07:08:35;5.00;64.10
16134;DHT22;8172;45.018;5.972;2022-12-29T07:13:42;5.00;64.20
16134;DHT22;8172;45.018;5.972;2022-12-29T07:18:49;5.00;64.60
16134;DHT22;8172;45.018;5.972;2022-12-29T07:23:57;5.00;64.70
16134;DHT22;8172;45.018;5.972;2022-12-29T07:29:04;5.00;64.80
16134;DHT22;8172;45.018;5.972;2022-12-29T07:34:11;5.00;64.80
16134;DHT22;8172;45.018;5.972;2022-12-29T07:39:18;5.00;64.80
16134;DHT22;8172;45.018;5.972;2022-12-29T07:44:26;5.00;64.80
16134;DHT22;8172;45.018;5.972;2022-12-29T07:49:34;5.00;64.80
16134;DHT22;8172;45.018;5.972;2022-12-29T07:54:42;5.00;64.90
16134;DHT22;8172;45.018;5.972;2022-12-29T07:59:49;5.10;65.00
16134;DHT22;8172;45.018;5.972;2022-12-29T08:04:56;5.10;65.20
16134;DHT22;8172;45.018;5.972;2022-12-29T08:10:03;5.10;65.20
16134;DHT22;8172;45.018;5.972;2022-12-29T08:15:12;5.10;65.10
16134;DHT22;8172;45.018;5.972;2022-12-29T08:20:19;5.20;65.30
16134;DHT22;8172;45.018;5.972;2022-12-29T08:25:26;5.20;65.30
16134;DHT22;8172;45.018;5.972;2022-12-29T08:30:33;5.20;65.40
16134;DHT22;8172;45.018;5.972;2022-12-29T08:35:40;5.30;65.20
16134;DHT22;8172;45.018;5.972;2022-12-29T08:40:47;5.30;65.20
16134;DHT22;8172;45.018;5.972;2022-12-29T08:45:54;5.30;65.30
16134;DHT22;8172;45.018;5.972;2022-12-29T08:51:02;5.40;65.20
16134;DHT22;8172;45.018;5.972;2022-12-29T08:56:10;5.40;65.20
16134;DHT22;8172;45.018;5.972;2022-12-29T09:01:19;5.40;65.30
16134;DHT22;8172;45.018;5.972;2022-12-29T09:06:26;5.40;65.30
16134;DHT22;8172;45.018;5.972;2022-12-29T09:11:35;5.50;65.30
16134;DHT22;8172;45.018;5.972;2022-12-29T09:16:42;5.50;65.40
16134;DHT22;8172;45.018;5.972;2022-12-29T09:21:51;5.50;65.50
16134;DHT22;8172;45.018;5.972;2022-12-29T09:26:58;5.50;65.50
16134;DHT22;8172;45.018;5.972;2022-12-29T09:32:05;5.50;65.70
16134;DHT22;8172;45.018;5.972;2022-12-29T09:37:15;5.50;65.70
16134;DHT22;8172;45.018;5.972;2022-12-29T09:42:25;5.50;65.70
16134;DHT22;8172;45.018;5.972;2022-12-29T09:47:32;5.50;65.80
16134;DHT22;8172;45.018;5.972;2022-12-29T09:52:43;5.60;66.00
16134;DHT22;8172;45.018;5.972;2022-12-29T10:03:02;5.60;66.30
16134;DHT22;8172;45.018;5.972;2022-12-29T10:23:44;5.70;66.70
16134;DHT22;8172;45.018;5.972;2022-12-29T10:28:56;5.70;66.80
16134;DHT22;8172;45.018;5.972;2022-12-29T10:34:12;5.80;67.10
16134;DHT22;8172;45.018;5.972;2022-12-29T10:39:16;5.90;67.00
16134;DHT22;8172;45.018;5.972;2022-12-29T10:44:24;6.00;66.60
16134;DHT22;8172;45.018;5.972;2022-12-29T10:49:36;6.10;66.70
16134;DHT22;8172;45.018;5.972;2022-12-29T10:59:53;6.20;66.70
16134;DHT22;8172;45.018;5.972;2022-12-29T11:15:20;6.40;66.30
16134;DHT22;8172;45.018;5.972;2022-12-29T11:20:28;6.40;66.10
16134;DHT22;8172;45.018;5.972;2022-12-29T11:25:35;6.40;66.00
16134;DHT22;8172;45.018;5.972;2022-12-29T11:30:43;6.40;66.00
16134;DHT22;8172;45.018;5.972;2022-12-29T11:35:50;6.50;65.90
16134;DHT22;8172;45.018;5.972;2022-12-29T11:40:57;6.50;65.90
16134;DHT22;8172;45.018;5.972;2022-12-29T11:46:05;6.50;65.80
16134;DHT22;8172;45.018;5.972;2022-12-29T11:51:20;6.50;65.70
16134;DHT22;8172;45.018;5.972;2022-12-29T12:01:37;6.60;65.30
16134;DHT22;8172;45.018;5.972;2022-12-29T12:06:49;6.60;65.30
16134;DHT22;8172;45.018;5.972;2022-12-29T12:11:57;6.70;65.30
16134;DHT22;8172;45.018;5.972;2022-12-29T12:22:19;6.70;65.20
16134;DHT22;8172;45.018;5.972;2022-12-29T12:27:29;6.80;65.30
16134;DHT22;8172;45.018;5.972;2022-12-29T12:37:48;6.90;65.30
16134;DHT22;8172;45.018;5.972;2022-12-29T13:03:45;6.90;64.90
16134;DHT22;8172;45.018;5.972;2022-12-29T13:19:08;7.00;65.00
16134;DHT22;8172;45.018;5.972;2022-12-29T13:24:19;7.10;65.10
16134;DHT22;8172;45.018;5.972;2022-12-29T13:29:26;7.30;65.10
16134;DHT22;8172;45.018;5.972;2022-12-29T13:39:46;7.60;64.70
16134;DHT22;8172;45.018;5.972;2022-12-29T13:50:01;7.70;64.30
16134;DHT22;8172;45.018;5.972;2022-12-29T14:00:21;7.80;64.30
16134;DHT22;8172;45.018;5.972;2022-12-29T14:05:31;7.80;64.30
16134;DHT22;8172;45.018;5.972;2022-12-29T14:10:48;7.70;64.40
16134;DHT22;8172;45.018;5.972;2022-12-29T14:15:53;7.70;64.40
16134;DHT22;8172;45.018;5.972;2022-12-29T14:36:36;7.50;64.90
16134;DHT22;8172;45.018;5.972;2022-12-29T14:41:41;7.50;65.00
16134;DHT22;8172;45.018;5.972;2022-12-29T14:52:07;7.40;65.30
16134;DHT22;8172;45.018;5.972;2022-12-29T15:02:21;7.40;65.60
16134;DHT22;8172;45.018;5.972;2022-12-29T15:07:29;7.40;65.80
16134;DHT22;8172;45.018;5.972;2022-12-29T15:17:48;7.30;66.00
16134;DHT22;8172;45.018;5.972;2022-12-29T15:22:56;7.30;66.10
16134;DHT22;8172;45.018;5.972;2022-12-29T15:28:06;7.20;66.20
16134;DHT22;8172;45.018;5.972;2022-12-29T15:38:26;7.20;66.40
16134;DHT22;8172;45.018;5.972;2022-12-29T15:49:05;7.10;66.40
16134;DHT22;8172;45.018;5.972;2022-12-29T16:04:32;7.00;66.50
16134;DHT22;8172;45.018;5.972;2022-12-29T16:09:44;7.00;66.60
16134;DHT22;8172;45.018;5.972;2022-12-29T16:20:03;7.00;66.70
16134;DHT22;8172;45.018;5.972;2022-12-29T16:25:15;6.90;66.80
16134;DHT22;8172;45.018;5.972;2022-12-29T16:30:20;6.90;66.90
16134;DHT22;8172;45.018;5.972;2022-12-29T16:40:56;6.90;67.30
16134;DHT22;8172;45.018;5.972;2022-12-29T16:56:13;6.80;67.90
16134;DHT22;8172;45.018;5.972;2022-12-29T17:01:17;6.80;67.90
16134;DHT22;8172;45.018;5.972;2022-12-29T17:06:25;6.80;68.00
16134;DHT22;8172;45.018;5.972;2022-12-29T17:11:33;6.80;68.10
16134;DHT22;8172;45.018;5.972;2022-12-29T17:16:42;6.80;68.60
16134;DHT22;8172;45.018;5.972;2022-12-29T17:21:49;6.80;69.20
16134;DHT22;8172;45.018;5.972;2022-12-29T17:26:58;6.80;69.50
16134;DHT22;8172;45.018;5.972;2022-12-29T17:32:09;6.80;69.70
16134;DHT22;8172;45.018;5.972;2022-12-29T17:42:27;6.70;70.10
16134;DHT22;8172;45.018;5.972;2022-12-29T17:47:35;6.70;70.20
16134;DHT22;8172;45.018;5.972;2022-12-29T17:52:46;6.70;70.30
16134;DHT22;8172;45.018;5.972;2022-12-29T17:57:53;6.70;70.30
16134;DHT22;8172;45.018;5.972;2022-12-29T18:03:01;6.60;70.30
16134;DHT22;8172;45.018;5.972;2022-12-29T18:08:09;6.60;70.40
16134;DHT22;8172;45.018;5.972;2022-12-29T18:13:21;6.60;70.40
16134;DHT22;8172;45.018;5.972;2022-12-29T18:18:27;6.60;70.50
16134;DHT22;8172;45.018;5.972;2022-12-29T18:23:35;6.60;70.40
16134;DHT22;8172;45.018;5.972;2022-12-29T18:28:42;6.60;70.50
16134;DHT22;8172;45.018;5.972;2022-12-29T18:33:50;6.60;70.50
16134;DHT22;8172;45.018;5.972;2022-12-29T18:38:58;6.60;70.60
16134;DHT22;8172;45.018;5.972;2022-12-29T18:44:09;6.60;70.60
16134;DHT22;8172;45.018;5.972;2022-12-29T18:49:15;6.60;70.60
16134;DHT22;8172;45.018;5.972;2022-12-29T18:54:25;6.60;70.60
16134;DHT22;8172;45.018;5.972;2022-12-29T18:59:32;6.60;70.50
16134;DHT22;8172;45.018;5.972;2022-12-29T19:04:41;6.60;70.50
16134;DHT22;8172;45.018;5.972;2022-12-29T19:09:48;6.60;70.50
16134;DHT22;8172;45.018;5.972;2022-12-29T19:14:58;6.60;70.50
16134;DHT22;8172;45.018;5.972;2022-12-29T19:20:09;6.70;70.60
16134;DHT22;8172;45.018;5.972;2022-12-29T19:25:17;6.70;70.80
16134;DHT22;8172;45.018;5.972;2022-12-29T19:30:24;6.70;70.80
16134;DHT22;8172;45.018;5.972;2022-12-29T19:35:31;6.70;71.00
16134;DHT22;8172;45.018;5.972;2022-12-29T19:40:40;6.70;71.00
16134;DHT22;8172;45.018;5.972;2022-12-29T19:45:48;6.70;71.10
16134;DHT22;8172;45.018;5.972;2022-12-29T19:51:03;6.70;71.00
16134;DHT22;8172;45.018;5.972;2022-12-29T19:56:10;6.60;71.10
16134;DHT22;8172;45.018;5.972;2022-12-29T20:01:19;6.60;71.10
16134;DHT22;8172;45.018;5.972;2022-12-29T20:06:29;6.60;71.20
16134;DHT22;8172;45.018;5.972;2022-12-29T20:11:36;6.60;71.20
16134;DHT22;8172;45.018;5.972;2022-12-29T20:16:43;6.60;71.30
16134;DHT22;8172;45.018;5.972;2022-12-29T20:21:51;6.60;71.40
16134;DHT22;8172;45.018;5.972;2022-12-29T20:26:58;6.60;71.40
16134;DHT22;8172;45.018;5.972;2022-12-29T20:32:10;6.60;71.50
16134;DHT22;8172;45.018;5.972;2022-12-29T20:37:18;6.60;71.50
16134;DHT22;8172;45.018;5.972;2022-12-29T20:42:25;6.60;71.80
16134;DHT22;8172;45.018;5.972;2022-12-29T20:47:32;6.60;71.90
16134;DHT22;8172;45.018;5.972;2022-12-29T20:52:41;6.60;72.10
16134;DHT22;8172;45.018;5.972;2022-12-29T20:57:49;6.60;72.20
16134;DHT22;8172;45.018;5.972;2022-12-29T21:02:58;6.50;72.70
16134;DHT22;8172;45.018;5.972;2022-12-29T21:08:06;6.50;72.80
16134;DHT22;8172;45.018;5.972;2022-12-29T21:13:14;6.50;73.00
16134;DHT22;8172;45.018;5.972;2022-12-29T21:18:27;6.40;73.10
16134;DHT22;8172;45.018;5.972;2022-12-29T21:23:36;6.40;73.30
16134;DHT22;8172;45.018;5.972;2022-12-29T21:28:45;6.40;73.40
16134;DHT22;8172;45.018;5.972;2022-12-29T21:33:54;6.40;73.50
16134;DHT22;8172;45.018;5.972;2022-12-29T21:39:02;6.40;73.60
16134;DHT22;8172;45.018;5.972;2022-12-29T21:44:09;6.40;73.60
16134;DHT22;8172;45.018;5.972;2022-12-29T21:49:18;6.40;73.70
16134;DHT22;8172;45.018;5.972;2022-12-29T21:54:28;6.40;73.90
16134;DHT22;8172;45.018;5.972;2022-12-29T21:59:37;6.40;74.10
16134;DHT22;8172;45.018;5.972;2022-12-29T22:04:46;6.30;74.50
16134;DHT22;8172;45.018;5.972;2022-12-29T22:09:55;6.30;74.60
16134;DHT22;8172;45.018;5.972;2022-12-29T22:15:04;6.30;74.70
16134;DHT22;8172;45.018;5.972;2022-12-29T22:20:16;6.30;74.90
16134;DHT22;8172;45.018;5.972;2022-12-29T22:25:29;6.20;74.90
16134;DHT22;8172;45.018;5.972;2022-12-29T22:30:46;6.20;75.20
16134;DHT22;8172;45.018;5.972;2022-12-29T22:36:00;6.20;75.50
16134;DHT22;8172;45.018;5.972;2022-12-29T22:41:07;6.10;75.60
16134;DHT22;8172;45.018;5.972;2022-12-29T22:46:16;6.10;75.70
16134;DHT22;8172;45.018;5.972;2022-12-29T22:51:25;6.10;75.90
16134;DHT22;8172;45.018;5.972;2022-12-29T22:56:35;6.10;75.90
16134;DHT22;8172;45.018;5.972;2022-12-29T23:01:45;6.10;76.00
16134;DHT22;8172;45.018;5.972;2022-12-29T23:06:52;6.00;76.60
16134;DHT22;8172;45.018;5.972;2022-12-29T23:12:00;6.00;76.60
16134;DHT22;8172;45.018;5.972;2022-12-29T23:17:07;5.90;76.80
16134;DHT22;8172;45.018;5.972;2022-12-29T23:22:14;5.90;77.00
16134;DHT22;8172;45.018;5.972;2022-12-29T23:27:21;5.90;77.00
16134;DHT22;8172;45.018;5.972;2022-12-29T23:32:28;5.90;77.00
16134;DHT22;8172;45.018;5.972;2022-12-29T23:37:36;5.90;77.20
16134;DHT22;8172;45.018;5.972;2022-12-29T23:42:43;5.90;77.40
16134;DHT22;8172;45.018;5.972;2022-12-29T23:47:50;5.80;77.40
16134;DHT22;8172;45.018;5.972;2022-12-29T23:52:58;5.80;77.30
16134;DHT22;8172;45.018;5.972;2022-12-29T23:58:05;5.80;77.30
